^^
Grace C. Lehan Memorial Weather Station Historical Data
Daily Summary for September 27, 2021 Units:  English    Metric   Both
Daily Weekly Monthly Yearly
  High: Low: Average:
Temperature: 40.9 °F 34.6 °F 36.7 °F
Dew Point: 30.1 °F 21.6 °F 26.9 °F
Humidity: 81% 46.7% 68%
Wind Speed: 14.2mph 0.1mph 5.7mph
Wind Gust: 28mph - -
Wind- - WNW
Pressure: 29.75 in 29.53 in -
Precipitation: 0.00 in    
 
 
Tabular Data for September 27, 2021
Time Temperature Dew Point Pressure Wind Wind Speed Wind Gust Humidity Rainfall Rate (Hourly) solar
00:04 35.3 °F 30.1 °F 29.53 in West 0.8 mph 11 mph 81% 0.00 in 0 W/m2
00:09 35.3 °F 30.1 °F 29.54 in West 1.9 mph 9 mph 81% 0.00 in 0 W/m2
00:14 35.3 °F 30.1 °F 29.54 in West 0.1 mph 9 mph 81% 0.00 in 0 W/m2
00:19 35.3 °F 30.1 °F 29.54 in WNW 2.1 mph 9 mph 81% 0.00 in 0 W/m2
00:24 35.3 °F 29.9 °F 29.54 in WSW 2.2 mph 11 mph 80.3% 0.00 in 0 W/m2
00:29 35.3 °F 29.8 °F 29.54 in West 0.7 mph 11 mph 80% 0.00 in 0 W/m2
00:34 35.3 °F 29.8 °F 29.54 in WNW 3 mph 11 mph 80% 0.00 in 0 W/m2
00:39 35.4 °F 29.9 °F 29.54 in WNW 1 mph 10 mph 80% 0.00 in 0 W/m2
00:44 35.5 °F 29.9 °F 29.54 in West 2.5 mph 15 mph 80% 0.00 in 0 W/m2
00:49 35.6 °F 29.8 °F 29.54 in West 4.2 mph 15 mph 79% 0.00 in 0 W/m2
00:54 35.7 °F 29.9 °F 29.54 in WNW 2.1 mph 15 mph 79% 0.00 in 0 W/m2
00:59 35.8 °F 30 °F 29.54 in West 3.1 mph 15 mph 79% 0.00 in 0 W/m2
01:04 35.9 °F 29.8 °F 29.54 in West 1.3 mph 15 mph 78.2% 0.00 in 0 W/m2
01:09 36 °F 29.8 °F 29.54 in WNW 5.3 mph 14 mph 78% 0.00 in 0 W/m2
01:14 36.1 °F 29.8 °F 29.55 in West 4.2 mph 14 mph 77.7% 0.00 in 0 W/m2
01:19 36.2 °F 29.7 °F 29.55 in West 4.3 mph 14 mph 77% 0.00 in 0 W/m2
01:24 36.3 °F 29.8 °F 29.56 in West 6.1 mph 15 mph 77% 0.00 in 0 W/m2
01:29 36.4 °F 29.8 °F 29.56 in West 3.3 mph 15 mph 76.7% 0.00 in 0 W/m2
01:34 36.4 °F 29.6 °F 29.56 in WSW 2.7 mph 15 mph 76% 0.00 in 0 W/m2
01:39 36.5 °F 29.7 °F 29.56 in West 3.4 mph 12 mph 76% 0.00 in 0 W/m2
01:44 36.5 °F 29.5 °F 29.57 in WNW 4.8 mph 12 mph 75.4% 0.00 in 0 W/m2
01:49 36.6 °F 29.4 °F 29.57 in WNW 5 mph 12 mph 75% 0.00 in 0 W/m2
01:54 36.6 °F 29.4 °F 29.57 in WNW 5.5 mph 15 mph 75% 0.00 in 0 W/m2
01:59 36.6 °F 29.3 °F 29.57 in WNW 8 mph 15 mph 74.6% 0.00 in 0 W/m2
02:04 36.6 °F 29.1 °F 29.57 in WNW 4.5 mph 15 mph 74% 0.00 in 0 W/m2
02:09 36.6 °F 29.1 °F 29.57 in WNW 5.8 mph 17 mph 74% 0.00 in 0 W/m2
02:14 36.6 °F 28.8 °F 29.57 in WNW 8 mph 19 mph 73% 0.00 in 0 W/m2
02:19 36.6 °F 28.8 °F 29.58 in WNW 6.7 mph 19 mph 73% 0.00 in 0 W/m2
02:24 36.6 °F 28.7 °F 29.58 in WNW 7.9 mph 19 mph 72.8% 0.00 in 0 W/m2
02:29 36.6 °F 28.7 °F 29.58 in WNW 6.7 mph 19 mph 72.8% 0.00 in 0 W/m2
02:34 36.5 °F 28.6 °F 29.58 in WNW 4.4 mph 19 mph 72.6% 0.00 in 0 W/m2
02:39 36.5 °F 28.6 °F 29.59 in West 5.3 mph 15 mph 72.7% 0.00 in 0 W/m2
02:44 36.4 °F 28.3 °F 29.59 in WNW 9.6 mph 22 mph 72.2% 0.00 in 0 W/m2
02:49 36.4 °F 28.3 °F 29.59 in WNW 9.5 mph 23 mph 72% 0.00 in 0 W/m2
02:54 36.4 °F 28.2 °F 29.59 in NW 7.5 mph 23 mph 72% 0.00 in 0 W/m2
02:59 36.3 °F 28 °F 29.59 in WNW 12.2 mph 23 mph 71.6% 0.00 in 0 W/m2
03:04 36.3 °F 27.9 °F 29.60 in WNW 7.6 mph 23 mph 71.3% 0.00 in 0 W/m2
03:09 36.3 °F 27.9 °F 29.60 in WNW 4 mph 18 mph 71.3% 0.00 in 0 W/m2
03:14 36.3 °F 28 °F 29.60 in WNW 3.8 mph 18 mph 71.5% 0.00 in 0 W/m2
03:19 36.2 °F 27.9 °F 29.61 in WNW 4.9 mph 18 mph 71.5% 0.00 in 0 W/m2
03:24 36.2 °F 27.9 °F 29.61 in WNW 5.8 mph 18 mph 71.5% 0.00 in 0 W/m2
03:30 36.2 °F 27.7 °F 29.61 in WNW 6 mph 18 mph 71% 0.00 in 0 W/m2
04:04 36.1 °F 27.6 °F 29.62 in West 11 mph 22 mph 71% 0.00 in 0 W/m2
04:09 36.1 °F 27.6 °F 29.62 in WNW 11 mph 22 mph 71% 0.00 in 0 W/m2
04:14 36.1 °F 27.6 °F 29.63 in NW 8.4 mph 22 mph 71% 0.00 in 0 W/m2
04:19 36.1 °F 27.6 °F 29.63 in NW 8.6 mph 22 mph 70.8% 0.00 in 0 W/m2
04:24 36.1 °F 27.5 °F 29.63 in WNW 6.1 mph 22 mph 70.6% 0.00 in 0 W/m2
04:29 36.1 °F 27.6 °F 29.63 in NW 2.1 mph 22 mph 71% 0.00 in 0 W/m2
04:34 36 °F 27.5 °F 29.63 in WNW 1.7 mph 22 mph 71% 0.00 in 0 W/m2
04:39 36 °F 27.5 °F 29.64 in WNW 5.4 mph 14 mph 71% 0.00 in 0 W/m2
04:44 35.9 °F 27.4 °F 29.64 in WNW 5.3 mph 15 mph 71% 0.00 in 0 W/m2
04:49 35.9 °F 27.4 °F 29.64 in WNW 6.3 mph 16 mph 71% 0.00 in 0 W/m2
04:54 35.9 °F 27.4 °F 29.64 in WNW 8 mph 20 mph 71% 0.00 in 0 W/m2
04:59 35.9 °F 27.4 °F 29.64 in NW 10.2 mph 22 mph 71% 0.00 in 0 W/m2
05:04 35.9 °F 27.1 °F 29.65 in NW 7.4 mph 22 mph 70.1% 0.00 in 0 W/m2
05:09 35.9 °F 27.1 °F 29.65 in WNW 8.7 mph 20 mph 70% 0.00 in 0 W/m2
05:14 35.9 °F 27.3 °F 29.65 in WNW 5 mph 20 mph 70.7% 0.00 in 0 W/m2
05:19 35.9 °F 27.4 °F 29.65 in WNW 7.4 mph 20 mph 70.8% 0.00 in 0 W/m2
05:24 35.9 °F 27.4 °F 29.65 in WNW 2.3 mph 20 mph 71% 0.00 in 0 W/m2
05:29 35.8 °F 27.4 °F 29.65 in WNW 3.6 mph 20 mph 71% 0.00 in 0 W/m2
05:34 35.8 °F 27.3 °F 29.65 in WNW 2.8 mph 20 mph 71% 0.00 in 0 W/m2
05:39 35.7 °F 27.3 °F 29.66 in West 5.8 mph 16 mph 71% 0.00 in 0 W/m2
05:44 35.7 °F 27.2 °F 29.66 in WNW 7.2 mph 16 mph 71% 0.00 in 0 W/m2
05:49 35.7 °F 27.2 °F 29.66 in West 5.3 mph 16 mph 71% 0.00 in 0 W/m2
05:54 35.7 °F 27.2 °F 29.66 in West 4.1 mph 16 mph 71% 0.00 in 0 W/m2
05:59 35.7 °F 27.2 °F 29.67 in WNW 3.5 mph 16 mph 71% 0.00 in 0 W/m2
06:04 35.7 °F 27.2 °F 29.67 in WNW 1.8 mph 16 mph 71% 0.00 in 0 W/m2
06:09 35.6 °F 27.1 °F 29.67 in NW 7.5 mph 16 mph 71% 0.00 in 0 W/m2
06:14 35.6 °F 27.1 °F 29.67 in WNW 4.7 mph 16 mph 71% 0.00 in 0 W/m2
06:19 35.5 °F 27 °F 29.67 in WNW 5.6 mph 16 mph 70.9% 0.00 in 0 W/m2
06:24 35.5 °F 26.7 °F 29.67 in WNW 3 mph 16 mph 70% 0.00 in 0 W/m2
06:29 35.4 °F 26.7 °F 29.68 in WNW 3.9 mph 16 mph 70.2% 0.00 in 0 W/m2
06:34 35.3 °F 26.5 °F 29.68 in NW 5.2 mph 16 mph 70% 0.00 in 0 W/m2
06:39 35.2 °F 26.5 °F 29.68 in WNW 2.4 mph 13 mph 70% 0.00 in 0 W/m2
06:44 35.2 °F 26.4 °F 29.69 in WNW 3.8 mph 13 mph 70% 0.00 in 0 W/m2
06:49 35.1 °F 26.3 °F 29.69 in WNW 0.2 mph 13 mph 70% 0.00 in 0 W/m2
06:54 35.1 °F 26.4 °F 29.69 in WNW 0.8 mph 13 mph 70.4% 0.00 in 0 W/m2
06:59 34.9 °F 26.2 °F 29.69 in WNW 1.9 mph 13 mph 70.1% 0.00 in 5 W/m2
07:04 34.9 °F 26.1 °F 29.69 in WNW 0.1 mph 13 mph 70% 0.00 in 9 W/m2
07:09 34.8 °F 26 °F 29.69 in WNW 0.8 mph 5 mph 70% 0.00 in 12 W/m2
07:14 34.7 °F 25.9 °F 29.69 in West 1.2 mph 7 mph 70% 0.00 in 14 W/m2
07:19 34.6 °F 25.8 °F 29.69 in West 2.3 mph 10 mph 70% 0.00 in 19 W/m2
07:24 34.6 °F 25.8 °F 29.70 in WNW 3 mph 11 mph 70% 0.00 in 26 W/m2
07:29 34.6 °F 25.6 °F 29.70 in WNW 3.3 mph 11 mph 69.3% 0.00 in 30 W/m2
07:34 34.7 °F 25.6 °F 29.70 in WNW 3.8 mph 14 mph 68.8% 0.00 in 46 W/m2
07:39 35 °F 25.4 °F 29.70 in WNW 7.4 mph 18 mph 67.6% 0.00 in 56 W/m2
07:44 35.3 °F 25.5 °F 29.71 in WNW 4.4 mph 18 mph 67% 0.00 in 100 W/m2
07:49 35.8 °F 25.8 °F 29.71 in WNW 3 mph 18 mph 66.7% 0.00 in 90 W/m2
07:54 36.3 °F 25.8 °F 29.71 in WNW 2.2 mph 18 mph 65.3% 0.00 in 69 W/m2
07:59 36.7 °F 26 °F 29.72 in WNW 0.7 mph 18 mph 65% 0.00 in 98 W/m2
08:04 37 °F 26 °F 29.72 in WNW 3.4 mph 4 mph 64% 0.00 in 155 W/m2
08:09 37.1 °F 25.8 °F 29.72 in WNW 8.9 mph 19 mph 63.3% 0.00 in 202 W/m2
08:14 37.2 °F 25.7 °F 29.72 in WNW 7.8 mph 19 mph 62.8% 0.00 in 113 W/m2
08:19 37.3 °F 25.9 °F 29.72 in NW 5.2 mph 19 mph 63% 0.00 in 227 W/m2
08:24 37.6 °F 26.2 °F 29.73 in WNW 6.6 mph 19 mph 62.9% 0.00 in 234 W/m2
08:29 38.1 °F 26 °F 29.72 in WNW 10.6 mph 21 mph 61.4% 0.00 in 241 W/m2
08:34 38.3 °F 26.2 °F 29.73 in WNW 4.5 mph 21 mph 61.2% 0.00 in 243 W/m2
08:39 38.7 °F 26.3 °F 29.72 in WNW 9 mph 19 mph 60.7% 0.00 in 248 W/m2
08:44 38.7 °F 26 °F 29.73 in WNW 7.6 mph 19 mph 60% 0.00 in 246 W/m2
08:49 38.7 °F 26.1 °F 29.73 in WNW 7.4 mph 19 mph 60.4% 0.00 in 214 W/m2
08:54 38.5 °F 25.9 °F 29.73 in WNW 8.2 mph 19 mph 60.2% 0.00 in 213 W/m2
08:59 38.1 °F 25.6 °F 29.73 in WNW 11.6 mph 21 mph 60.2% 0.00 in 135 W/m2
09:04 37.7 °F 25 °F 29.74 in WNW 9.1 mph 21 mph 60% 0.00 in 179 W/m2
09:09 37.4 °F 24.8 °F 29.74 in WNW 8.6 mph 21 mph 60% 0.00 in 160 W/m2
09:14 37.4 °F 24.7 °F 29.74 in WNW 10.1 mph 21 mph 60% 0.00 in 149 W/m2
09:19 37.3 °F 24.3 °F 29.74 in NW 9.6 mph 21 mph 59% 0.00 in 197 W/m2
09:24 37.4 °F 24.4 °F 29.74 in NW 9.1 mph 21 mph 59% 0.00 in 178 W/m2
09:29 37.5 °F 24.2 °F 29.75 in NW 6.9 mph 21 mph 58.5% 0.00 in 146 W/m2
09:34 37.5 °F 24.3 °F 29.75 in WNW 4.1 mph 21 mph 58.4% 0.00 in 111 W/m2
09:39 37.8 °F 24.5 °F 29.75 in NW 7.6 mph 18 mph 58.4% 0.00 in 185 W/m2
09:44 37.8 °F 25.4 °F 29.75 in WNW 9.7 mph 23 mph 60.4% 0.00 in 190 W/m2
09:49 37.9 °F 24 °F 29.75 in WNW 9 mph 28 mph 57% 0.00 in 88 W/m2
09:54 38 °F 24.1 °F 29.75 in NW 7.2 mph 28 mph 57% 0.00 in 265 W/m2
09:59 38.1 °F 24.1 °F 29.75 in WNW 7 mph 28 mph 56.6% 0.00 in 316 W/m2
10:04 38.6 °F 24.6 °F 29.75 in WNW 4.8 mph 28 mph 56.7% 0.00 in 309 W/m2
10:09 39.2 °F 24.6 °F 29.75 in WNW 6.8 mph 16 mph 55.3% 0.00 in 378 W/m2
10:14 39.7 °F 24.3 °F 29.75 in WNW 7.3 mph 19 mph 53.5% 0.00 in 420 W/m2
10:19 40.4 °F 24.1 °F 29.75 in NW 7.1 mph 19 mph 51.7% 0.00 in 459 W/m2
10:24 40.9 °F 23.6 °F 29.75 in WNW 11.4 mph 28 mph 49.8% 0.00 in 464 W/m2
10:29 40.7 °F 22.6 °F 29.75 in WNW 14.2 mph 28 mph 48% 0.00 in 471 W/m2
10:34 40.4 °F 22.4 °F 29.75 in NW 9.6 mph 28 mph 48.3% 0.00 in 471 W/m2
10:39 40.4 °F 22 °F 29.75 in WNW 7.6 mph 19 mph 47.5% 0.00 in 290 W/m2
10:44 40.5 °F 22.3 °F 29.75 in WNW 8.8 mph 19 mph 48% 0.00 in 322 W/m2
10:49 40.5 °F 22.2 °F 29.74 in WNW 8.7 mph 19 mph 47.7% 0.00 in 322 W/m2
10:54 40.5 °F 21.9 °F 29.74 in NW 11.7 mph 22 mph 47% 0.00 in 408 W/m2
10:59 40.3 °F 21.6 °F 29.75 in NW 9 mph 22 mph 46.7% 0.00 in 443 W/m2
11:04 40.2 °F 21.6 °F 29.75 in WNW 8.5 mph 23 mph 46.9% 0.00 in 443 W/m2
11:08 40.3 °F 22.2 °F 29.74 in NW 6.8 mph 23 mph 48% 0.00 in 98 W/m2
Hartford County Weather
Compliments of Weather Underground - 2 mb